createdAt,value
2023-04-07T00:01:40.162Z,10.07
2023-04-07T00:04:07.061Z,7.50
2023-04-07T00:06:33.868Z,6.80
2023-04-07T00:09:00.678Z,5.90
2023-04-07T00:11:27.692Z,6.07
2023-04-07T00:13:54.618Z,6.40
2023-04-07T00:16:21.690Z,9.23
2023-04-07T00:18:48.792Z,7.77
2023-04-07T00:21:15.531Z,8.63
2023-04-07T00:23:42.914Z,10.63
2023-04-07T00:26:09.782Z,6.57
2023-04-07T00:28:36.553Z,5.87
2023-04-07T00:31:03.468Z,8.27
2023-04-07T00:33:30.684Z,9.50
2023-04-07T00:35:58.971Z,9.37
2023-04-07T00:38:25.902Z,10.67
2023-04-07T00:40:58.754Z,6.07
2023-04-07T00:43:25.854Z,7.17
2023-04-07T00:45:53.710Z,7.40
2023-04-07T00:48:21.272Z,5.43
2023-04-07T00:50:48.531Z,9.77
2023-04-07T00:53:16.105Z,6.60
2023-04-07T00:55:43.171Z,7.13
2023-04-07T00:58:09.971Z,8.33
2023-04-07T01:00:46.343Z,7.63
2023-04-07T01:03:29.164Z,7.40
2023-04-07T01:06:01.090Z,6.70
2023-04-07T01:08:35.593Z,6.47
2023-04-07T01:11:12.692Z,7.97
2023-04-07T01:13:48.248Z,12.47
2023-04-07T01:16:25.061Z,7.33
2023-04-07T01:18:56.025Z,6.33
2023-04-07T01:21:25.343Z,9.37
2023-04-07T01:24:39.550Z,7.77
2023-04-07T01:27:21.418Z,7.90
2023-04-07T01:29:50.877Z,8.10
2023-04-07T01:32:20.475Z,5.63
2023-04-07T01:34:49.825Z,8.53
2023-04-07T01:37:17.594Z,8.70
2023-04-07T01:39:44.633Z,8.20
2023-04-07T01:42:12.434Z,7.30
2023-04-07T01:44:40.851Z,6.83
2023-04-07T01:47:08.409Z,9.80
2023-04-07T01:49:36.959Z,11.10
2023-04-07T01:52:04.518Z,5.77
2023-04-07T01:54:31.845Z,7.23
2023-04-07T01:56:58.766Z,7.80
2023-04-07T01:59:25.749Z,7.90
2023-04-07T02:01:52.717Z,12.20
2023-04-07T02:04:28.805Z,8.67
2023-04-07T02:07:01.003Z,7.33
2023-04-07T02:09:31.627Z,7.50
2023-04-07T02:12:01.937Z,7.10
2023-04-07T02:14:29.613Z,6.90
2023-04-07T02:16:57.288Z,7.03
2023-04-07T02:19:24.961Z,13.40
2023-04-07T02:21:52.422Z,10.03
2023-04-07T02:24:22.547Z,7.97
2023-04-07T02:26:49.455Z,9.93
2023-04-07T02:29:16.462Z,12.30
2023-04-07T02:31:43.330Z,6.53
2023-04-07T02:34:10.895Z,9.03
2023-04-07T02:36:37.775Z,7.97
2023-04-07T02:39:04.730Z,9.87
2023-04-07T02:41:31.548Z,9.50
2023-04-07T02:43:58.612Z,7.57
2023-04-07T02:46:25.471Z,10.43
2023-04-07T02:48:52.354Z,8.37
2023-04-07T02:51:19.095Z,12.53
2023-04-07T02:53:45.794Z,9.47
2023-04-07T02:56:12.517Z,10.73
2023-04-07T02:58:39.511Z,6.90
2023-04-07T03:01:06.303Z,8.73
2023-04-07T03:03:34.323Z,7.53
2023-04-07T03:06:01.174Z,9.17
2023-04-07T03:08:27.959Z,9.43
2023-04-07T03:10:54.762Z,9.77
2023-04-07T03:13:21.688Z,9.60
2023-04-07T03:15:48.421Z,12.03
2023-04-07T03:18:15.589Z,10.43
2023-04-07T03:20:42.605Z,12.70
2023-04-07T03:23:09.342Z,9.43
2023-04-07T03:25:36.534Z,10.80
2023-04-07T03:28:03.554Z,17.57
2023-04-07T03:30:30.552Z,7.50
2023-04-07T03:32:57.542Z,12.63
2023-04-07T03:35:24.443Z,10.40
2023-04-07T03:37:51.335Z,10.60
2023-04-07T03:40:18.192Z,8.47
2023-04-07T03:42:46.705Z,10.87
2023-04-07T03:45:13.606Z,10.13
2023-04-07T03:47:40.409Z,7.67
2023-04-07T03:50:08.591Z,9.90
2023-04-07T03:52:35.325Z,12.40
2023-04-07T03:55:06.119Z,10.07
2023-04-07T03:57:32.934Z,10.10
2023-04-07T03:59:59.716Z,12.40
2023-04-07T04:02:26.591Z,7.80
2023-04-07T04:04:53.490Z,9.33
2023-04-07T04:07:20.347Z,8.80
2023-04-07T04:09:47.125Z,8.40
2023-04-07T04:12:14.912Z,10.73
2023-04-07T04:14:41.652Z,12.00
2023-04-07T04:17:10.013Z,10.23
2023-04-07T04:19:36.766Z,9.27
2023-04-07T04:22:03.593Z,12.10
2023-04-07T04:24:30.353Z,8.43
2023-04-07T04:26:57.162Z,8.13
2023-04-07T04:29:24.090Z,8.07
2023-04-07T04:31:51.091Z,8.43
2023-04-07T04:34:17.860Z,7.80
2023-04-07T04:36:44.731Z,11.50
2023-04-07T04:39:11.665Z,7.57
2023-04-07T04:41:38.498Z,11.07
2023-04-07T04:44:05.229Z,11.13
2023-04-07T04:46:33.218Z,12.93
2023-04-07T04:49:00.114Z,8.27
2023-04-07T04:51:27.292Z,11.30
2023-04-07T04:53:54.538Z,9.23
2023-04-07T04:56:21.920Z,9.03
2023-04-07T04:58:48.649Z,8.13
2023-04-07T05:01:15.671Z,11.70
2023-04-07T05:03:42.863Z,11.57
2023-04-07T05:06:09.951Z,11.50
2023-04-07T05:08:36.724Z,13.87
2023-04-07T05:11:03.462Z,10.17
2023-04-07T05:13:31.618Z,11.90
2023-04-07T05:15:58.407Z,11.70
2023-04-07T05:18:25.591Z,9.07
2023-04-07T05:20:52.835Z,11.90
2023-04-07T05:23:19.529Z,8.13
2023-04-07T05:25:46.303Z,10.80
2023-04-07T05:28:13.240Z,11.47
2023-04-07T05:30:40.113Z,10.30
2023-04-07T05:33:07.110Z,9.20
2023-04-07T05:35:34.035Z,8.30
2023-04-07T05:38:00.776Z,12.07
2023-04-07T05:40:28.734Z,10.07
2023-04-07T05:42:56.933Z,9.40
2023-04-07T05:45:23.927Z,11.23
2023-04-07T05:47:50.822Z,10.43
2023-04-07T05:50:18.228Z,8.63
2023-04-07T05:52:45.028Z,9.67
2023-04-07T05:55:11.729Z,8.53
2023-04-07T05:57:39.667Z,8.83
2023-04-07T06:00:07.087Z,8.17
2023-04-07T06:02:33.961Z,8.20
2023-04-07T06:05:00.981Z,14.97
2023-04-07T06:07:27.774Z,9.03
2023-04-07T06:09:54.664Z,17.20
2023-04-07T06:12:21.583Z,10.23
2023-04-07T06:14:54.061Z,15.20
2023-04-07T06:17:20.932Z,10.67
2023-04-07T06:19:48.253Z,10.23
2023-04-07T06:22:15.474Z,7.07
2023-04-07T06:24:42.202Z,10.10
2023-04-07T06:27:09.134Z,22.10
2023-04-07T06:29:37.328Z,7.60
2023-04-07T06:32:04.174Z,7.03
2023-04-07T06:34:31.024Z,10.17
2023-04-07T06:36:59.389Z,9.77
2023-04-07T06:39:27.546Z,8.97
2023-04-07T06:41:54.285Z,7.27
2023-04-07T06:44:21.036Z,7.23
2023-04-07T06:46:50.389Z,8.30
2023-04-07T06:49:17.361Z,10.03
2023-04-07T06:51:44.480Z,9.10
2023-04-07T06:54:14.847Z,8.33
2023-04-07T06:56:42.970Z,11.27
2023-04-07T06:59:10.144Z,7.67
2023-04-07T07:01:38.079Z,8.60
2023-04-07T07:04:06.550Z,8.67
2023-04-07T07:06:33.494Z,12.27
2023-04-07T07:09:00.959Z,7.13
2023-04-07T07:11:27.760Z,9.77
2023-04-07T07:13:54.768Z,10.77
2023-04-07T07:16:24.032Z,9.03
2023-04-07T07:18:51.480Z,11.47
2023-04-07T07:21:19.091Z,7.63
2023-04-07T07:23:46.228Z,9.77
2023-04-07T07:26:13.188Z,8.03
2023-04-07T07:28:39.916Z,6.37
2023-04-07T07:31:15.198Z,6.70
2023-04-07T07:33:46.141Z,7.60
2023-04-07T07:36:13.169Z,12.37
2023-04-07T07:38:40.532Z,8.43
2023-04-07T07:41:11.023Z,7.80
2023-04-07T07:43:38.024Z,6.63
2023-04-07T07:46:05.508Z,7.53
2023-04-07T07:48:32.522Z,7.07
2023-04-07T07:50:59.900Z,6.60
2023-04-07T07:53:26.689Z,7.53
2023-04-07T07:55:55.936Z,7.30
2023-04-07T07:58:22.810Z,7.03
2023-04-07T08:00:49.620Z,7.13
2023-04-07T08:03:17.757Z,8.87
2023-04-07T08:05:44.679Z,6.80
2023-04-07T08:08:11.547Z,5.70
2023-04-07T08:10:38.307Z,6.80
2023-04-07T08:13:05.392Z,5.60
2023-04-07T08:15:32.406Z,6.80
2023-04-07T08:18:00.946Z,5.07
2023-04-07T08:20:28.016Z,8.73
2023-04-07T08:22:54.791Z,6.77
2023-04-07T08:25:22.685Z,8.37
2023-04-07T08:27:49.586Z,6.83
2023-04-07T08:30:16.955Z,6.10
2023-04-07T08:32:45.143Z,7.33
2023-04-07T08:35:12.450Z,6.70
2023-04-07T08:37:41.358Z,5.80
2023-04-07T08:40:08.615Z,4.60
2023-04-07T08:42:38.442Z,5.33
2023-04-07T08:45:07.369Z,6.03
2023-04-07T08:47:35.620Z,3.97
2023-04-07T08:50:05.037Z,4.43
2023-04-07T08:52:40.711Z,8.90
2023-04-07T08:55:08.792Z,5.47
2023-04-07T08:57:36.721Z,4.57
2023-04-07T09:00:05.942Z,6.00
2023-04-07T09:02:40.959Z,3.83
2023-04-07T09:05:09.464Z,6.20
2023-04-07T09:07:37.928Z,5.00
2023-04-07T09:10:05.845Z,6.10
2023-04-07T09:12:33.519Z,4.90
2023-04-07T09:15:00.642Z,4.63
2023-04-07T09:17:29.002Z,6.80
2023-04-07T09:20:00.905Z,6.27
2023-04-07T09:22:36.932Z,5.60
2023-04-07T09:25:12.956Z,4.57
2023-04-07T09:27:39.852Z,5.37
2023-04-07T09:30:18.382Z,5.90
2023-04-07T09:32:45.280Z,4.17
2023-04-07T09:35:12.631Z,5.90
2023-04-07T09:37:39.412Z,5.40
2023-04-07T09:40:06.998Z,4.90
2023-04-07T09:42:36.083Z,6.83
2023-04-07T09:45:03.391Z,4.13
2023-04-07T09:47:32.698Z,6.83
2023-04-07T09:49:59.923Z,4.93
2023-04-07T09:52:50.350Z,5.33
2023-04-07T09:55:32.283Z,6.00
2023-04-07T09:58:11.762Z,5.03
2023-04-07T10:00:38.710Z,3.97
2023-04-07T10:03:07.625Z,6.70
2023-04-07T10:05:38.000Z,4.17
2023-04-07T10:08:06.668Z,3.97
2023-04-07T10:10:34.719Z,3.03
2023-04-07T10:13:04.615Z,3.60
2023-04-07T10:15:31.595Z,3.90
2023-04-07T10:17:59.753Z,2.53
2023-04-07T10:20:28.394Z,2.70
2023-04-07T10:22:58.891Z,4.10
2023-04-07T10:25:26.938Z,3.87
2023-04-07T10:28:08.407Z,5.03
2023-04-07T10:30:36.338Z,3.50
2023-04-07T10:33:03.694Z,6.90
2023-04-07T10:36:03.821Z,4.00
2023-04-07T10:38:31.768Z,3.20
2023-04-07T10:40:58.633Z,3.27
2023-04-07T10:43:39.243Z,1.67
2023-04-07T10:46:06.287Z,3.37
2023-04-07T10:48:33.551Z,6.00
2023-04-07T10:51:06.242Z,4.20
2023-04-07T10:53:34.018Z,4.50
2023-04-07T10:56:01.379Z,4.43
2023-04-07T10:58:32.769Z,3.90
2023-04-07T11:01:12.318Z,4.40
2023-04-07T11:03:42.264Z,5.33
2023-04-07T11:06:11.842Z,3.07
2023-04-07T11:08:43.358Z,2.93
2023-04-07T11:11:12.591Z,3.70
2023-04-07T11:13:50.403Z,2.40
2023-04-07T11:16:34.492Z,3.03
2023-04-07T11:19:01.668Z,3.10
2023-04-07T11:21:28.614Z,4.00
2023-04-07T11:23:55.387Z,2.17
2023-04-07T11:26:22.273Z,5.47
2023-04-07T11:28:59.249Z,4.70
2023-04-07T11:31:28.744Z,2.57
2023-04-07T11:34:00.707Z,2.80
2023-04-07T11:36:30.042Z,3.93
2023-04-07T11:38:57.813Z,6.23
2023-04-07T11:41:31.368Z,2.20
2023-04-07T11:44:09.488Z,2.03
2023-04-07T11:46:37.353Z,4.05
2023-04-07T11:49:14.722Z,2.73
2023-04-07T11:51:44.111Z,4.47
2023-04-07T11:54:11.390Z,4.27
2023-04-07T11:56:46.781Z,1.80
2023-04-07T11:59:22.990Z,2.90
2023-04-07T12:01:51.320Z,2.13
2023-04-07T12:04:19.283Z,3.90
2023-04-07T12:06:47.972Z,4.17
2023-04-07T12:09:29.704Z,4.30
2023-04-07T12:11:57.792Z,3.33
2023-04-07T12:14:28.846Z,2.43
2023-04-07T12:16:57.946Z,2.97
2023-04-07T12:19:28.219Z,2.13
2023-04-07T12:21:55.929Z,4.03
2023-04-07T12:24:23.773Z,2.90
2023-04-07T12:26:50.595Z,3.07
2023-04-07T12:29:20.032Z,1.67
2023-04-07T12:31:51.135Z,3.40
2023-04-07T12:34:19.033Z,3.90
2023-04-07T12:36:47.658Z,4.10
2023-04-07T12:39:16.070Z,2.47
2023-04-07T12:41:44.903Z,3.43
2023-04-07T12:44:11.796Z,3.93
2023-04-07T12:46:38.626Z,3.23
2023-04-07T12:49:05.895Z,2.97
2023-04-07T12:51:35.916Z,3.13
2023-04-07T12:54:02.732Z,3.20
2023-04-07T12:56:29.794Z,3.87
2023-04-07T12:58:56.669Z,3.83
2023-04-07T13:01:23.459Z,2.00
2023-04-07T13:03:51.324Z,1.17
2023-04-07T13:06:19.218Z,4.13
2023-04-07T13:08:46.163Z,3.17
2023-04-07T13:11:12.942Z,2.70
2023-04-07T13:13:39.684Z,2.30
2023-04-07T13:16:06.840Z,1.80
2023-04-07T13:18:33.698Z,2.47
2023-04-07T13:23:36.236Z,1.87
2023-04-07T13:26:09.543Z,1.50
2023-04-07T13:28:36.348Z,1.47
2023-04-07T13:31:03.101Z,3.03
2023-04-07T13:33:29.937Z,2.70
2023-04-07T13:35:56.931Z,1.30
2023-04-07T13:38:23.950Z,1.80
2023-04-07T13:40:50.798Z,3.47
2023-04-07T13:43:19.014Z,1.57
2023-04-07T13:45:46.930Z,2.93
2023-04-07T13:48:13.896Z,2.90
2023-04-07T13:50:40.997Z,2.53
2023-04-07T13:53:08.014Z,5.43
2023-04-07T13:55:35.165Z,2.67
2023-04-07T13:58:02.115Z,3.13
2023-04-07T14:00:28.837Z,2.07
2023-04-07T14:02:59.379Z,1.57
2023-04-07T14:05:26.548Z,6.20
2023-04-07T14:07:54.450Z,2.67
2023-04-07T14:10:21.643Z,2.23
2023-04-07T14:12:48.560Z,4.97
2023-04-07T14:15:17.674Z,2.30
2023-04-07T14:17:45.148Z,4.97
2023-04-07T14:20:12.120Z,3.73
2023-04-07T14:22:38.822Z,1.70
2023-04-07T14:25:06.126Z,3.17
2023-04-07T14:27:33.545Z,3.03
2023-04-07T14:30:00.481Z,1.37
2023-04-07T14:32:29.769Z,3.27
2023-04-07T14:34:59.025Z,2.10
2023-04-07T14:37:26.793Z,2.80
2023-04-07T14:40:02.661Z,3.60
2023-04-07T14:42:30.956Z,1.90
2023-04-07T14:44:59.005Z,2.63
2023-04-07T14:47:25.848Z,1.80
2023-04-07T14:49:53.744Z,1.83
2023-04-07T14:52:22.093Z,3.80
2023-04-07T14:54:49.217Z,2.53
2023-04-07T14:57:16.791Z,3.30
2023-04-07T14:59:44.211Z,3.50
2023-04-07T15:02:11.277Z,2.33
2023-04-07T15:04:38.665Z,1.73
2023-04-07T15:07:05.745Z,2.47
2023-04-07T15:09:32.529Z,2.03
2023-04-07T15:12:00.491Z,2.13
2023-04-07T15:14:27.357Z,3.23
2023-04-07T15:16:54.245Z,2.07
2023-04-07T15:19:21.061Z,3.13
2023-04-07T15:21:48.049Z,2.40
2023-04-07T15:24:16.205Z,4.10
2023-04-07T15:26:43.407Z,3.33
2023-04-07T15:29:10.153Z,3.17
2023-04-07T15:31:37.124Z,3.07
2023-04-07T15:34:04.094Z,1.33
2023-04-07T15:36:31.508Z,2.63
2023-04-07T15:39:04.339Z,4.10
2023-04-07T15:41:31.388Z,3.77
2023-04-07T15:44:00.310Z,4.10
2023-04-07T15:46:32.050Z,3.07
2023-04-07T15:48:59.692Z,3.97
2023-04-07T15:51:27.795Z,3.03
2023-04-07T15:53:54.877Z,3.20
2023-04-07T15:56:24.634Z,2.73
2023-04-07T15:58:51.733Z,3.40
2023-04-07T16:01:18.771Z,3.03
2023-04-07T16:03:45.906Z,2.90
2023-04-07T16:06:13.484Z,5.73
2023-04-07T16:08:40.240Z,1.97
2023-04-07T16:11:07.030Z,3.13
2023-04-07T16:13:33.742Z,5.23
2023-04-07T16:16:00.656Z,4.47
2023-04-07T16:18:27.500Z,2.23
2023-04-07T16:20:54.294Z,3.57
2023-04-07T16:23:21.300Z,2.57
2023-04-07T16:25:48.114Z,2.70
2023-04-07T16:28:14.908Z,2.67
2023-04-07T16:30:43.103Z,1.73
2023-04-07T16:33:09.937Z,3.30
2023-04-07T16:35:36.870Z,3.00
2023-04-07T16:38:05.984Z,2.93
2023-04-07T16:40:33.601Z,1.10
2023-04-07T16:43:00.537Z,2.20
2023-04-07T16:45:27.237Z,2.77
2023-04-07T16:47:54.192Z,3.53
2023-04-07T16:50:21.605Z,3.77
2023-04-07T16:52:48.394Z,4.23
2023-04-07T16:55:15.251Z,2.17
2023-04-07T16:57:42.084Z,3.10
2023-04-07T17:00:09.379Z,4.50
2023-04-07T17:02:36.326Z,3.00
2023-04-07T17:05:03.677Z,2.73
2023-04-07T17:07:30.473Z,5.13
2023-04-07T17:09:57.260Z,2.57
2023-04-07T17:12:24.049Z,4.17
2023-04-07T17:14:50.786Z,1.60
2023-04-07T17:17:17.608Z,2.10
2023-04-07T17:19:44.424Z,2.07
2023-04-07T17:22:11.192Z,1.40
2023-04-07T17:24:37.888Z,1.33
2023-04-07T17:27:04.592Z,2.70
2023-04-07T17:29:31.503Z,2.93
2023-04-07T17:31:58.398Z,2.70
2023-04-07T17:34:25.582Z,1.70
2023-04-07T17:36:52.507Z,4.03
2023-04-07T17:39:19.688Z,3.07
2023-04-07T17:41:47.530Z,2.00
2023-04-07T17:44:14.367Z,2.73
2023-04-07T17:46:41.267Z,2.57
2023-04-07T17:49:08.076Z,1.63
2023-04-07T17:51:34.932Z,2.23
2023-04-07T17:54:01.908Z,2.33
2023-04-07T17:56:28.838Z,3.77
2023-04-07T17:58:55.773Z,2.50
2023-04-07T18:01:22.594Z,4.50
2023-04-07T18:03:49.711Z,5.27
2023-04-07T18:06:17.877Z,2.20
2023-04-07T18:08:48.290Z,3.67
2023-04-07T18:11:16.205Z,3.00
2023-04-07T18:13:42.991Z,3.93
2023-04-07T18:16:11.826Z,2.57
2023-04-07T18:18:38.841Z,2.53
2023-04-07T18:21:08.649Z,2.33
2023-04-07T18:23:35.978Z,4.03
2023-04-07T18:26:04.930Z,2.10
2023-04-07T18:28:31.857Z,2.10
2023-04-07T18:31:04.724Z,3.27
2023-04-07T18:33:33.318Z,2.47
2023-04-07T18:36:05.086Z,4.33
2023-04-07T18:38:32.082Z,3.17
2023-04-07T18:41:00.076Z,3.57
2023-04-07T18:43:27.962Z,2.37
2023-04-07T18:45:54.782Z,3.40
2023-04-07T18:48:21.743Z,3.47
2023-04-07T18:50:52.935Z,3.23
2023-04-07T18:53:23.982Z,4.67
2023-04-07T18:55:50.940Z,2.07
2023-04-07T18:58:18.044Z,5.40
2023-04-07T19:00:44.915Z,4.37
2023-04-07T19:03:12.144Z,2.33
2023-04-07T19:05:42.471Z,2.63
2023-04-07T19:08:09.333Z,5.23
2023-04-07T19:10:36.152Z,4.60
2023-04-07T19:13:03.558Z,4.13
2023-04-07T19:15:34.481Z,3.60
2023-04-07T19:18:02.416Z,2.63
2023-04-07T19:20:36.062Z,3.37
2023-04-07T19:23:02.932Z,4.70
2023-04-07T19:25:31.182Z,2.90
2023-04-07T19:27:58.559Z,6.07
2023-04-07T19:30:25.499Z,6.90
2023-04-07T19:32:52.644Z,3.17
2023-04-07T19:35:19.702Z,4.33
2023-04-07T19:37:48.118Z,3.20
2023-04-07T19:40:15.532Z,4.80
2023-04-07T19:42:42.560Z,5.87
2023-04-07T19:45:09.957Z,5.47
2023-04-07T19:47:37.597Z,5.33
2023-04-07T19:50:05.473Z,6.40
2023-04-07T19:52:33.175Z,5.33
2023-04-07T19:55:01.070Z,7.87
2023-04-07T19:57:29.026Z,6.60
2023-04-07T19:59:56.413Z,5.50
2023-04-07T20:02:23.739Z,6.37
2023-04-07T20:04:51.099Z,5.87
2023-04-07T20:07:17.861Z,7.90
2023-04-07T20:09:44.978Z,8.70
2023-04-07T20:12:11.757Z,5.70
2023-04-07T20:14:38.949Z,8.23
2023-04-07T20:17:05.838Z,7.50
2023-04-07T20:19:33.817Z,7.07
2023-04-07T20:22:00.942Z,6.90
2023-04-07T20:24:28.471Z,7.23
2023-04-07T20:26:55.959Z,6.10
2023-04-07T20:29:22.704Z,7.33
2023-04-07T20:31:49.539Z,9.73
2023-04-07T20:34:16.681Z,7.30
2023-04-07T20:36:43.598Z,8.10
2023-04-07T20:39:10.740Z,5.87
2023-04-07T20:41:37.789Z,6.47
2023-04-07T20:44:04.708Z,7.60
2023-04-07T20:46:33.669Z,6.90
2023-04-07T20:49:00.667Z,7.33
2023-04-07T20:51:29.913Z,6.63
2023-04-07T20:53:57.096Z,10.43
2023-04-07T20:56:24.048Z,6.03
2023-04-07T20:58:51.363Z,6.40
2023-04-07T21:01:18.351Z,8.57
2023-04-07T21:03:45.478Z,8.60
2023-04-07T21:06:12.325Z,8.20
2023-04-07T21:08:39.497Z,7.70
2023-04-07T21:11:06.464Z,6.93
2023-04-07T21:13:34.014Z,7.57
2023-04-07T21:16:03.314Z,10.53
2023-04-07T21:18:30.725Z,8.53
2023-04-07T21:20:59.032Z,6.83
2023-04-07T21:23:26.039Z,7.93
2023-04-07T21:25:52.996Z,11.30
2023-04-07T21:28:19.732Z,8.87
2023-04-07T21:30:46.558Z,7.83
2023-04-07T21:33:14.285Z,7.83
2023-04-07T21:35:41.244Z,9.27
2023-04-07T21:38:08.100Z,7.23
2023-04-07T21:40:34.843Z,9.37
2023-04-07T21:43:02.162Z,7.53
2023-04-07T21:45:29.688Z,9.83
2023-04-07T21:47:56.719Z,7.57
2023-04-07T21:50:24.070Z,9.03
2023-04-07T21:52:51.790Z,8.10
2023-04-07T21:55:19.064Z,9.03
2023-04-07T21:57:45.930Z,7.57
2023-04-07T22:00:14.039Z,8.20
2023-04-07T22:02:41.429Z,8.80
2023-04-07T22:05:08.835Z,7.77
2023-04-07T22:07:36.453Z,8.37
2023-04-07T22:10:03.929Z,8.93
2023-04-07T22:12:30.735Z,7.40
2023-04-07T22:14:57.437Z,8.83
2023-04-07T22:17:24.394Z,8.77
2023-04-07T22:19:51.603Z,7.30
2023-04-07T22:22:20.218Z,8.10
2023-04-07T22:24:47.280Z,7.97
2023-04-07T22:27:14.061Z,7.50
2023-04-07T22:29:40.761Z,9.37
2023-04-07T22:32:07.528Z,8.83
2023-04-07T22:34:34.347Z,7.67
2023-04-07T22:37:01.152Z,9.57
2023-04-07T22:39:27.994Z,7.33
2023-04-07T22:41:54.690Z,8.20
2023-04-07T22:44:21.428Z,10.07
2023-04-07T22:46:48.272Z,7.90
2023-04-07T22:49:15.021Z,10.93
2023-04-07T22:51:41.861Z,8.40
2023-04-07T22:54:08.703Z,7.67
2023-04-07T22:56:35.466Z,15.87
2023-04-07T22:59:05.524Z,11.07
2023-04-07T23:01:33.317Z,10.23
2023-04-07T23:04:00.659Z,10.30
2023-04-07T23:06:31.478Z,9.00
2023-04-07T23:08:58.226Z,11.43
2023-04-07T23:11:25.031Z,8.40
2023-04-07T23:13:52.404Z,8.13
2023-04-07T23:16:19.214Z,9.63
2023-04-07T23:18:46.219Z,8.00
2023-04-07T23:21:13.781Z,8.53
2023-04-07T23:23:40.529Z,11.53
2023-04-07T23:26:07.338Z,10.47
2023-04-07T23:28:34.110Z,8.60
2023-04-07T23:31:02.109Z,8.77
2023-04-07T23:33:31.757Z,7.80
2023-04-07T23:35:58.896Z,8.53
2023-04-07T23:38:26.153Z,10.30
2023-04-07T23:40:53.328Z,11.90
2023-04-07T23:43:20.505Z,11.17
2023-04-07T23:45:47.439Z,9.33
2023-04-07T23:48:16.105Z,9.20
2023-04-07T23:50:43.046Z,8.30
2023-04-07T23:53:09.907Z,10.33
2023-04-07T23:55:36.849Z,9.70
2023-04-07T23:58:03.635Z,7.53
